Upstream stations:
Downstream station:
SHEF ID: BRIO2 Canadian River at Bridgeport, OK
STATION TYPE:
Regulating: Stage = 15.00, Flow = 8545
STAGE RIV-FLOW
ft cfs
Ccp-Rev Ccp-Rev
(US/Central)
06/02 00:00 12.49 2032
06/02 01:00 12.46 1990
06/02 02:00 12.44 1963
06/02 03:00 12.43 1949
06/02 04:00 12.42 1936
06/02 05:00 12.42 1936
06/02 06:00 12.46 1990
06/02 07:00 12.65 2265
06/02 08:00 13.11 3036
06/02 09:00 13.12 3055
06/02 10:00 13.10 3018
06/02 11:00 13.09 2999
06/02 12:00 13.09 2999
06/02 13:00 13.04 2909
06/02 14:00 12.94 2733
06/02 15:00 12.93 2716
06/02 16:00 12.90 2665
06/02 17:00 12.90 2665
06/02 18:00 12.87 2615
06/02 19:00 12.83 2548
06/02 20:00 12.73 2388
06/02 21:00 12.66 2280
06/02 22:00 14.14 5478
06/02 23:00 ---- ----